createdAt,value
2022-11-29T00:00:47.629Z,7.47
2022-11-29T00:05:51.630Z,6.83
2022-11-29T00:10:54.148Z,6.50
2022-11-29T00:16:01.314Z,6.43
2022-11-29T00:21:08.567Z,6.80
2022-11-29T00:26:11.097Z,6.33
2022-11-29T00:31:26.071Z,6.83
2022-11-29T00:36:29.069Z,7.28
2022-11-29T00:41:31.865Z,6.30
2022-11-29T00:46:34.406Z,6.38
2022-11-29T00:51:37.150Z,6.53
2022-11-29T00:56:40.293Z,7.10
2022-11-29T01:01:43.148Z,7.20
2022-11-29T01:06:45.802Z,7.50
2022-11-29T01:11:50.347Z,8.75
2022-11-29T01:16:52.892Z,8.40
2022-11-29T01:21:55.692Z,9.83
2022-11-29T01:26:58.291Z,8.77
2022-11-29T01:32:00.827Z,8.00
2022-11-29T01:37:03.427Z,8.90
2022-11-29T01:42:06.019Z,8.13
2022-11-29T01:47:11.240Z,8.17
2022-11-29T01:52:15.931Z,8.90
2022-11-29T01:57:20.554Z,8.17
2022-11-29T02:02:31.154Z,8.87
2022-11-29T02:07:34.367Z,7.77
2022-11-29T02:12:43.051Z,8.07
2022-11-29T02:18:06.756Z,8.60
2022-11-29T02:23:33.994Z,8.77
2022-11-29T02:29:05.002Z,9.13
2022-11-29T02:34:07.470Z,10.27
2022-11-29T02:39:54.307Z,8.73
2022-11-29T02:45:14.042Z,8.87
2022-11-29T02:50:51.118Z,9.77
2022-11-29T02:56:32.060Z,9.43
2022-11-29T03:02:04.189Z,9.97
2022-11-29T03:07:06.696Z,9.77
2022-11-29T03:12:30.461Z,9.80
2022-11-29T03:17:50.788Z,10.43
2022-11-29T03:23:09.598Z,9.57
2022-11-29T03:28:25.549Z,9.87
2022-11-29T03:33:32.190Z,11.03
2022-11-29T03:38:42.369Z,10.40
2022-11-29T03:44:03.774Z,10.57
2022-11-29T03:49:47.663Z,9.65
2022-11-29T03:55:06.011Z,11.23
2022-11-29T04:00:12.682Z,12.00
2022-11-29T04:05:38.781Z,13.23
2022-11-29T04:10:44.227Z,13.40
2022-11-29T04:16:21.068Z,12.90
2022-11-29T04:21:38.518Z,10.60
2022-11-29T04:27:26.062Z,11.10
2022-11-29T04:32:34.142Z,9.43
2022-11-29T04:38:04.491Z,13.83
2022-11-29T04:43:39.047Z,12.87
2022-11-29T04:49:11.132Z,12.00
2022-11-29T04:54:22.924Z,13.33
2022-11-29T05:05:04.927Z,11.37
2022-11-29T05:10:36.010Z,12.02
2022-11-29T05:16:02.384Z,12.77
2022-11-29T05:21:44.054Z,13.83
2022-11-29T05:27:14.740Z,12.20
2022-11-29T05:32:44.723Z,11.53
2022-11-29T05:37:55.137Z,16.73
2022-11-29T05:43:12.135Z,12.77
2022-11-29T05:48:46.636Z,12.97
2022-11-29T05:54:05.184Z,10.97
2022-11-29T05:59:13.307Z,11.73
2022-11-29T06:04:46.655Z,11.20
2022-11-29T06:10:01.497Z,12.03
2022-11-29T06:15:16.595Z,12.17
2022-11-29T06:20:55.563Z,14.67
2022-11-29T06:26:26.729Z,14.27
2022-11-29T06:31:42.500Z,14.77
2022-11-29T06:36:53.326Z,14.30
2022-11-29T06:41:56.121Z,12.03
2022-11-29T06:46:58.677Z,11.73
2022-11-29T06:52:22.766Z,12.83
2022-11-29T06:57:52.021Z,11.47
2022-11-29T07:03:41.727Z,14.33
2022-11-29T07:08:45.676Z,14.23
2022-11-29T07:13:48.524Z,13.20
2022-11-29T07:19:03.974Z,12.63
2022-11-29T07:24:18.039Z,11.03
2022-11-29T07:29:41.872Z,11.07
2022-11-29T07:35:19.345Z,11.57
2022-11-29T07:40:45.927Z,12.67
2022-11-29T07:45:48.854Z,12.83
2022-11-29T07:50:51.433Z,11.73
2022-11-29T07:55:54.131Z,13.43
2022-11-29T08:00:56.882Z,11.93
2022-11-29T08:05:59.651Z,12.67
2022-11-29T08:11:02.285Z,12.63
2022-11-29T08:16:05.221Z,13.80
2022-11-29T08:21:08.727Z,14.27
2022-11-29T08:26:11.748Z,14.20
2022-11-29T08:31:14.536Z,13.60
2022-11-29T08:36:19.464Z,13.20
2022-11-29T08:41:21.996Z,12.02
2022-11-29T08:46:51.909Z,11.65
2022-11-29T08:52:14.616Z,12.70
2022-11-29T08:57:39.183Z,11.00
2022-11-29T09:02:40.121Z,11.77
2022-11-29T09:07:43.501Z,14.60
2022-11-29T09:12:46.448Z,11.98
2022-11-29T09:17:49.107Z,9.57
2022-11-29T09:22:52.626Z,10.48
2022-11-29T09:27:58.375Z,11.27
2022-11-29T09:33:02.868Z,11.02
2022-11-29T09:38:13.644Z,11.32
2022-11-29T09:43:24.860Z,7.70
2022-11-29T09:48:55.588Z,10.02
2022-11-29T09:54:06.509Z,11.13
2022-11-29T09:59:14.248Z,10.32
2022-11-29T10:04:25.522Z,10.45
2022-11-29T10:09:43.001Z,10.70
2022-11-29T10:15:04.479Z,11.33
2022-11-29T10:20:29.154Z,10.73
2022-11-29T10:25:37.867Z,10.73
2022-11-29T10:30:41.618Z,11.43
2022-11-29T10:35:46.111Z,11.07
2022-11-29T10:40:52.875Z,11.90
2022-11-29T10:45:56.424Z,10.23
2022-11-29T10:51:00.114Z,11.20
2022-11-29T10:56:14.630Z,10.97
2022-11-29T11:01:17.429Z,11.93
2022-11-29T11:06:42.571Z,11.33
2022-11-29T11:11:54.443Z,11.77
2022-11-29T11:17:20.163Z,13.23
2022-11-29T11:22:25.403Z,12.33
2022-11-29T11:27:35.345Z,12.57
2022-11-29T11:32:38.482Z,17.50
2022-11-29T11:37:41.116Z,15.03
2022-11-29T11:42:44.024Z,13.93
2022-11-29T11:47:54.174Z,12.87
2022-11-29T11:53:05.132Z,17.27
2022-11-29T11:58:13.865Z,14.23
2022-11-29T12:03:40.469Z,13.25
2022-11-29T12:08:45.046Z,13.83
2022-11-29T12:13:55.507Z,14.03
2022-11-29T12:19:07.225Z,17.13
2022-11-29T12:24:30.668Z,15.63
2022-11-29T12:29:35.430Z,15.60
2022-11-29T12:35:28.502Z,15.63
2022-11-29T12:40:42.325Z,16.00
2022-11-29T12:46:08.921Z,16.47
2022-11-29T12:51:39.930Z,17.17
2022-11-29T12:56:55.166Z,14.53
2022-11-29T13:02:26.788Z,15.20
2022-11-29T13:08:13.386Z,14.73
2022-11-29T13:13:47.927Z,15.17
2022-11-29T13:18:58.902Z,13.80
2022-11-29T13:24:10.043Z,12.20
2022-11-29T13:29:16.939Z,15.43
2022-11-29T13:34:31.154Z,15.07
2022-11-29T13:40:14.083Z,16.10
2022-11-29T13:45:25.675Z,15.67
2022-11-29T13:50:43.864Z,14.20
2022-11-29T13:55:59.998Z,14.23
2022-11-29T14:01:10.492Z,12.97
2022-11-29T14:06:33.384Z,12.70
2022-11-29T14:11:50.720Z,12.30
2022-11-29T14:16:58.636Z,10.87
2022-11-29T14:22:05.713Z,12.13
2022-11-29T14:27:14.233Z,12.30
2022-11-29T14:32:46.153Z,12.73
2022-11-29T14:38:13.944Z,12.63
2022-11-29T14:43:37.810Z,13.33
2022-11-29T14:49:02.341Z,13.20
2022-11-29T14:54:19.716Z,17.13
2022-11-29T14:59:50.212Z,17.43
2022-11-29T15:04:57.023Z,13.03
2022-11-29T15:10:05.358Z,14.23
2022-11-29T15:15:21.964Z,13.63
2022-11-29T15:20:43.053Z,14.73
2022-11-29T15:25:54.132Z,13.07
2022-11-29T15:31:09.822Z,13.88
2022-11-29T15:36:21.712Z,14.47
2022-11-29T15:41:31.792Z,13.53
2022-11-29T15:46:35.886Z,16.93
2022-11-29T15:51:39.641Z,14.00
2022-11-29T15:56:55.995Z,15.13
2022-11-29T16:02:02.813Z,14.27
2022-11-29T16:07:06.625Z,14.27
2022-11-29T16:12:15.296Z,14.13
2022-11-29T16:17:20.836Z,13.40
2022-11-29T16:22:24.414Z,14.93
2022-11-29T16:27:28.216Z,15.00
2022-11-29T16:32:34.129Z,15.03
2022-11-29T16:37:40.650Z,13.70
2022-11-29T16:43:06.482Z,15.67
2022-11-29T16:48:27.737Z,14.63
2022-11-29T16:53:44.327Z,10.00
2022-11-29T16:59:26.019Z,13.77
2022-11-29T17:04:24.317Z,13.53
2022-11-29T17:09:30.922Z,13.60
2022-11-29T17:14:33.550Z,14.03
2022-11-29T17:19:36.170Z,13.73
2022-11-29T17:24:44.778Z,13.03
2022-11-29T17:34:52.949Z,13.27
2022-11-29T17:39:56.830Z,14.93
2022-11-29T17:45:00.186Z,15.10
2022-11-29T17:50:02.866Z,15.53
2022-11-29T17:55:06.593Z,16.63
2022-11-29T18:00:12.990Z,14.87
2022-11-29T18:05:15.640Z,20.87
2022-11-29T18:10:18.311Z,15.03
2022-11-29T18:15:21.006Z,15.53
2022-11-29T18:20:23.679Z,14.60
2022-11-29T18:25:41.631Z,14.70
2022-11-29T18:30:44.235Z,14.40
2022-11-29T18:35:47.398Z,16.03
2022-11-29T18:40:49.990Z,16.33
2022-11-29T18:45:53.734Z,15.27
2022-11-29T18:51:01.830Z,15.07
2022-11-29T18:56:10.278Z,14.57
2022-11-29T19:01:18.439Z,14.83
2022-11-29T19:06:31.768Z,12.83
2022-11-29T19:11:40.335Z,13.63
2022-11-29T19:16:45.780Z,13.53
2022-11-29T19:21:48.763Z,12.70
2022-11-29T19:26:51.390Z,15.90
2022-11-29T19:31:54.154Z,14.10
2022-11-29T19:36:56.761Z,14.47
2022-11-29T19:42:01.394Z,13.87
2022-11-29T19:47:04.106Z,13.63
2022-11-29T19:52:07.050Z,13.00
2022-11-29T19:57:10.092Z,14.13
2022-11-29T20:02:12.985Z,13.77
2022-11-29T20:07:15.588Z,14.27
2022-11-29T20:12:18.527Z,14.77
2022-11-29T20:17:22.063Z,13.70
2022-11-29T20:22:27.293Z,13.33
2022-11-29T20:27:29.968Z,14.07
2022-11-29T20:32:32.692Z,13.40
2022-11-29T20:37:45.733Z,14.90
2022-11-29T20:42:57.039Z,15.30
2022-11-29T20:48:13.149Z,14.00
2022-11-29T20:53:31.526Z,13.53
2022-11-29T20:58:34.681Z,12.47
2022-11-29T21:03:37.469Z,12.40
2022-11-29T21:08:40.079Z,12.30
2022-11-29T21:13:43.361Z,12.27
2022-11-29T21:18:48.470Z,11.70
2022-11-29T21:23:59.513Z,12.67
2022-11-29T21:29:15.791Z,12.03
2022-11-29T21:34:19.285Z,12.43
2022-11-29T21:39:22.699Z,13.60
2022-11-29T21:44:25.354Z,13.50
2022-11-29T21:49:28.357Z,12.83
2022-11-29T21:54:30.891Z,12.47
2022-11-29T21:59:33.446Z,14.40
2022-11-29T22:04:35.966Z,13.20
2022-11-29T22:09:38.672Z,13.07
2022-11-29T22:14:41.177Z,12.80
2022-11-29T22:19:43.674Z,12.83
2022-11-29T22:24:46.351Z,13.87
2022-11-29T22:29:49.531Z,13.37
2022-11-29T22:34:52.068Z,13.90
2022-11-29T22:39:54.614Z,13.37
2022-11-29T22:44:57.168Z,12.90
2022-11-29T22:49:59.737Z,11.57
2022-11-29T22:55:05.028Z,12.27
2022-11-29T23:00:08.715Z,12.80
2022-11-29T23:05:11.237Z,12.23
2022-11-29T23:10:13.719Z,11.43
2022-11-29T23:15:16.359Z,12.13
2022-11-29T23:20:18.864Z,12.30
2022-11-29T23:25:21.388Z,11.50
2022-11-29T23:30:24.040Z,12.53
2022-11-29T23:35:26.908Z,11.70
2022-11-29T23:40:29.514Z,13.07
2022-11-29T23:45:36.307Z,11.80
2022-11-29T23:50:38.898Z,12.40
2022-11-29T23:55:42.382Z,12.13
